Main page
METAR-TAF:

METAR-TAF

Airports :

Pyongyang, North Korea

Pyongyang Sunan International Airport

latitude: 39-02N, longitude: 125-47E, elevation: 36 m

METAR: missing

Time: 10:35 (02:05 UTC)

Forecast

The report was made 4 hours and 15 minutes ago, at 21:50 UTC
Forecast valid from 29 at 00 UTC to 29 at 24 UTC
Wind 6 kt from the South/Southwest
Visibility: 6000 m
Broken clouds at a height of 2000 ft
Becoming
from 29 at 03 UTC to 29 at 05 UTC
Wind 10 kt from the West/Northwest
Visibility 10 km or more
Few clouds at a height of 2000 ft

TAF: ZKPY 282150Z 2900/2924 21003MPS 6000 BKN020 BECMG 2903/2905 29005MPS 9999 FEW020

Weather observations and forecasts of more than 4000 airports (METAR and TAF reports).

The available stations are represented by yellow and red dots on the map.

Hover mouse over dot to see the name of the station.

Then click to see weather observations and forecasts.

To change the map : click on the green buttons with a black cross to zoom in, on the green button with a dash to zoom out, or on the green arrows for adjacent maps.


METAR-TAF: